sensor_id;sensor_type;location;lat;lon;timestamp;temperature;humidity
19060;DHT22;9663;48.996;8.334;2022-09-13T00:00:39;17.60;52.70
19060;DHT22;9663;48.996;8.334;2022-09-13T00:03:10;17.50;52.70
19060;DHT22;9663;48.996;8.334;2022-09-13T00:05:37;17.50;52.80
19060;DHT22;9663;48.996;8.334;2022-09-13T00:08:04;17.50;53.00
19060;DHT22;9663;48.996;8.334;2022-09-13T00:10:32;17.50;53.10
19060;DHT22;9663;48.996;8.334;2022-09-13T00:12:59;17.50;53.80
19060;DHT22;9663;48.996;8.334;2022-09-13T00:15:25;17.40;53.20
19060;DHT22;9663;48.996;8.334;2022-09-13T00:17:51;17.40;53.20
19060;DHT22;9663;48.996;8.334;2022-09-13T00:20:16;17.40;53.30
19060;DHT22;9663;48.996;8.334;2022-09-13T00:22:42;17.40;53.40
19060;DHT22;9663;48.996;8.334;2022-09-13T00:25:08;17.40;53.50
19060;DHT22;9663;48.996;8.334;2022-09-13T00:27:35;17.30;53.50
19060;DHT22;9663;48.996;8.334;2022-09-13T00:30:05;17.40;53.60
19060;DHT22;9663;48.996;8.334;2022-09-13T00:32:33;17.40;53.70
19060;DHT22;9663;48.996;8.334;2022-09-13T00:35:00;17.40;53.80
19060;DHT22;9663;48.996;8.334;2022-09-13T00:37:27;17.40;54.00
19060;DHT22;9663;48.996;8.334;2022-09-13T00:39:53;17.40;53.70
19060;DHT22;9663;48.996;8.334;2022-09-13T00:42:24;17.50;54.40
19060;DHT22;9663;48.996;8.334;2022-09-13T00:47:38;17.40;54.30
19060;DHT22;9663;48.996;8.334;2022-09-13T00:50:38;17.40;54.00
19060;DHT22;9663;48.996;8.334;2022-09-13T00:53:13;17.30;53.70
19060;DHT22;9663;48.996;8.334;2022-09-13T00:55:48;17.40;53.80
19060;DHT22;9663;48.996;8.334;2022-09-13T00:58:20;17.30;54.10
19060;DHT22;9663;48.996;8.334;2022-09-13T01:00:51;17.20;54.30
19060;DHT22;9663;48.996;8.334;2022-09-13T01:03:20;17.30;54.10
19060;DHT22;9663;48.996;8.334;2022-09-13T01:05:58;17.30;54.20
19060;DHT22;9663;48.996;8.334;2022-09-13T01:08:30;17.10;54.70
19060;DHT22;9663;48.996;8.334;2022-09-13T01:10:59;17.10;54.20
19060;DHT22;9663;48.996;8.334;2022-09-13T01:13:29;17.10;54.30
19060;DHT22;9663;48.996;8.334;2022-09-13T01:15:58;17.10;54.30
19060;DHT22;9663;48.996;8.334;2022-09-13T01:18:24;17.00;54.20
19060;DHT22;9663;48.996;8.334;2022-09-13T01:24:13;17.00;55.40
19060;DHT22;9663;48.996;8.334;2022-09-13T01:27:20;16.90;55.30
19060;DHT22;9663;48.996;8.334;2022-09-13T01:30:23;16.90;55.20
19060;DHT22;9663;48.996;8.334;2022-09-13T01:38:55;16.80;55.00
19060;DHT22;9663;48.996;8.334;2022-09-13T01:41:40;16.70;55.20
19060;DHT22;9663;48.996;8.334;2022-09-13T01:44:38;16.70;54.90
19060;DHT22;9663;48.996;8.334;2022-09-13T01:53:05;16.50;55.20
19060;DHT22;9663;48.996;8.334;2022-09-13T01:55:32;16.50;55.30
19060;DHT22;9663;48.996;8.334;2022-09-13T02:01:03;16.50;56.20
19060;DHT22;9663;48.996;8.334;2022-09-13T02:04:04;16.50;55.70
19060;DHT22;9663;48.996;8.334;2022-09-13T02:09:43;16.60;56.60
19060;DHT22;9663;48.996;8.334;2022-09-13T02:12:17;16.40;55.40
19060;DHT22;9663;48.996;8.334;2022-09-13T02:14:52;16.50;55.70
19060;DHT22;9663;48.996;8.334;2022-09-13T02:17:29;16.50;55.80
19060;DHT22;9663;48.996;8.334;2022-09-13T02:20:04;16.50;55.90
19060;DHT22;9663;48.996;8.334;2022-09-13T02:22:40;16.50;55.60
19060;DHT22;9663;48.996;8.334;2022-09-13T02:25:16;16.50;55.70
19060;DHT22;9663;48.996;8.334;2022-09-13T02:27:49;16.40;55.80
19060;DHT22;9663;48.996;8.334;2022-09-13T02:30:17;16.50;55.80
19060;DHT22;9663;48.996;8.334;2022-09-13T02:33:10;16.40;55.70
19060;DHT22;9663;48.996;8.334;2022-09-13T02:35:44;16.40;56.60
19060;DHT22;9663;48.996;8.334;2022-09-13T02:40:56;16.40;56.20
19060;DHT22;9663;48.996;8.334;2022-09-13T02:43:34;16.40;56.10
19060;DHT22;9663;48.996;8.334;2022-09-13T02:52:09;16.40;56.70
19060;DHT22;9663;48.996;8.334;2022-09-13T02:54:53;16.40;56.20
19060;DHT22;9663;48.996;8.334;2022-09-13T02:57:54;16.40;56.30
19060;DHT22;9663;48.996;8.334;2022-09-13T03:00:25;16.40;56.40
19060;DHT22;9663;48.996;8.334;2022-09-13T03:02:54;16.30;55.70
19060;DHT22;9663;48.996;8.334;2022-09-13T03:05:22;16.30;55.90
19060;DHT22;9663;48.996;8.334;2022-09-13T03:07:48;16.20;55.90
19060;DHT22;9663;48.996;8.334;2022-09-13T03:10:15;16.10;56.00
19060;DHT22;9663;48.996;8.334;2022-09-13T03:13:02;16.10;56.10
19060;DHT22;9663;48.996;8.334;2022-09-13T03:21:56;16.00;56.40
19060;DHT22;9663;48.996;8.334;2022-09-13T03:24:41;16.00;56.30
19060;DHT22;9663;48.996;8.334;2022-09-13T03:27:36;16.00;57.30
19060;DHT22;9663;48.996;8.334;2022-09-13T03:30:13;16.00;56.40
19060;DHT22;9663;48.996;8.334;2022-09-13T03:32:51;16.00;56.80
19060;DHT22;9663;48.996;8.334;2022-09-13T03:38:00;16.10;56.90
19060;DHT22;9663;48.996;8.334;2022-09-13T03:40:46;16.00;56.70
19060;DHT22;9663;48.996;8.334;2022-09-13T03:43:27;16.00;57.30
19060;DHT22;9663;48.996;8.334;2022-09-13T03:46:03;16.00;57.00
19060;DHT22;9663;48.996;8.334;2022-09-13T03:48:35;16.00;56.90
19060;DHT22;9663;48.996;8.334;2022-09-13T03:51:07;16.00;57.10
19060;DHT22;9663;48.996;8.334;2022-09-13T03:53:38;16.00;57.30
19060;DHT22;9663;48.996;8.334;2022-09-13T03:56:15;16.00;57.20
19060;DHT22;9663;48.996;8.334;2022-09-13T03:58:43;16.10;57.40
19060;DHT22;9663;48.996;8.334;2022-09-13T04:01:09;16.10;57.20
19060;DHT22;9663;48.996;8.334;2022-09-13T04:03:38;16.10;57.20
19060;DHT22;9663;48.996;8.334;2022-09-13T04:06:04;16.20;57.40
19060;DHT22;9663;48.996;8.334;2022-09-13T04:08:31;16.30;57.40
19060;DHT22;9663;48.996;8.334;2022-09-13T04:10:57;16.20;57.30
19060;DHT22;9663;48.996;8.334;2022-09-13T04:13:24;16.20;57.20
19060;DHT22;9663;48.996;8.334;2022-09-13T04:15:49;16.30;57.20
19060;DHT22;9663;48.996;8.334;2022-09-13T04:18:15;16.30;57.20
19060;DHT22;9663;48.996;8.334;2022-09-13T04:20:41;16.20;57.20
19060;DHT22;9663;48.996;8.334;2022-09-13T04:23:07;16.30;57.30
19060;DHT22;9663;48.996;8.334;2022-09-13T04:25:33;16.30;57.30
19060;DHT22;9663;48.996;8.334;2022-09-13T04:28:03;16.20;57.30
19060;DHT22;9663;48.996;8.334;2022-09-13T04:30:29;16.30;57.30
19060;DHT22;9663;48.996;8.334;2022-09-13T04:32:55;16.30;57.40
19060;DHT22;9663;48.996;8.334;2022-09-13T04:35:21;16.30;57.50
19060;DHT22;9663;48.996;8.334;2022-09-13T04:37:46;16.40;57.60
19060;DHT22;9663;48.996;8.334;2022-09-13T04:40:12;16.40;57.70
19060;DHT22;9663;48.996;8.334;2022-09-13T04:42:39;16.40;57.60
19060;DHT22;9663;48.996;8.334;2022-09-13T04:45:05;16.40;57.60
19060;DHT22;9663;48.996;8.334;2022-09-13T04:47:31;16.40;57.60
19060;DHT22;9663;48.996;8.334;2022-09-13T04:49:57;16.50;57.60
19060;DHT22;9663;48.996;8.334;2022-09-13T04:52:23;16.50;58.40
19060;DHT22;9663;48.996;8.334;2022-09-13T04:54:49;16.40;57.60
19060;DHT22;9663;48.996;8.334;2022-09-13T04:57:16;16.40;57.60
19060;DHT22;9663;48.996;8.334;2022-09-13T04:59:42;16.50;57.70
19060;DHT22;9663;48.996;8.334;2022-09-13T05:02:08;16.50;57.80
19060;DHT22;9663;48.996;8.334;2022-09-13T05:04:33;16.50;57.80
19060;DHT22;9663;48.996;8.334;2022-09-13T05:06:59;16.50;57.80
19060;DHT22;9663;48.996;8.334;2022-09-13T05:09:25;16.50;57.80
19060;DHT22;9663;48.996;8.334;2022-09-13T05:11:50;16.60;57.80
19060;DHT22;9663;48.996;8.334;2022-09-13T05:14:16;16.60;57.80
19060;DHT22;9663;48.996;8.334;2022-09-13T05:16:42;16.60;57.70
19060;DHT22;9663;48.996;8.334;2022-09-13T05:19:09;16.50;57.70
19060;DHT22;9663;48.996;8.334;2022-09-13T05:21:36;16.60;57.80
19060;DHT22;9663;48.996;8.334;2022-09-13T05:24:02;16.70;57.90
19060;DHT22;9663;48.996;8.334;2022-09-13T05:26:29;16.50;57.80
19060;DHT22;9663;48.996;8.334;2022-09-13T05:28:56;16.50;57.90
19060;DHT22;9663;48.996;8.334;2022-09-13T05:31:34;16.50;58.00
19060;DHT22;9663;48.996;8.334;2022-09-13T05:34:05;16.50;58.60
19060;DHT22;9663;48.996;8.334;2022-09-13T05:36:32;16.50;58.10
19060;DHT22;9663;48.996;8.334;2022-09-13T05:38:59;16.60;58.10
19060;DHT22;9663;48.996;8.334;2022-09-13T05:41:25;16.60;58.10
19060;DHT22;9663;48.996;8.334;2022-09-13T05:43:51;16.60;58.20
19060;DHT22;9663;48.996;8.334;2022-09-13T05:46:18;16.60;58.20
19060;DHT22;9663;48.996;8.334;2022-09-13T05:48:45;16.60;58.20
19060;DHT22;9663;48.996;8.334;2022-09-13T05:51:16;16.60;58.20
19060;DHT22;9663;48.996;8.334;2022-09-13T05:53:47;16.60;58.50
19060;DHT22;9663;48.996;8.334;2022-09-13T05:56:17;16.60;58.30
19060;DHT22;9663;48.996;8.334;2022-09-13T05:58:46;16.60;58.40
19060;DHT22;9663;48.996;8.334;2022-09-13T06:01:15;16.50;58.40
19060;DHT22;9663;48.996;8.334;2022-09-13T06:03:42;16.60;58.50
19060;DHT22;9663;48.996;8.334;2022-09-13T06:06:09;16.70;58.60
19060;DHT22;9663;48.996;8.334;2022-09-13T06:08:35;16.70;58.80
19060;DHT22;9663;48.996;8.334;2022-09-13T06:11:03;16.80;58.80
19060;DHT22;9663;48.996;8.334;2022-09-13T06:13:31;16.80;58.90
19060;DHT22;9663;48.996;8.334;2022-09-13T06:15:59;17.00;58.90
19060;DHT22;9663;48.996;8.334;2022-09-13T06:18:26;17.00;58.90
19060;DHT22;9663;48.996;8.334;2022-09-13T06:21:01;17.20;58.90
19060;DHT22;9663;48.996;8.334;2022-09-13T06:23:28;17.40;59.20
19060;DHT22;9663;48.996;8.334;2022-09-13T06:26:15;17.40;58.80
19060;DHT22;9663;48.996;8.334;2022-09-13T06:28:42;17.70;59.60
19060;DHT22;9663;48.996;8.334;2022-09-13T06:31:13;17.80;58.80
19060;DHT22;9663;48.996;8.334;2022-09-13T06:33:41;17.80;58.80
19060;DHT22;9663;48.996;8.334;2022-09-13T06:36:14;18.00;58.80
19060;DHT22;9663;48.996;8.334;2022-09-13T06:38:47;18.10;58.80
19060;DHT22;9663;48.996;8.334;2022-09-13T06:41:15;18.30;58.80
19060;DHT22;9663;48.996;8.334;2022-09-13T06:43:45;18.50;58.60
19060;DHT22;9663;48.996;8.334;2022-09-13T06:46:16;18.60;58.50
19060;DHT22;9663;48.996;8.334;2022-09-13T06:48:44;18.80;58.50
19060;DHT22;9663;48.996;8.334;2022-09-13T06:51:13;19.00;58.30
19060;DHT22;9663;48.996;8.334;2022-09-13T06:53:45;19.10;58.20
19060;DHT22;9663;48.996;8.334;2022-09-13T06:56:24;19.20;58.20
19060;DHT22;9663;48.996;8.334;2022-09-13T06:58:55;19.30;58.20
19060;DHT22;9663;48.996;8.334;2022-09-13T07:01:31;19.50;58.10
19060;DHT22;9663;48.996;8.334;2022-09-13T07:04:06;19.70;58.10
19060;DHT22;9663;48.996;8.334;2022-09-13T07:06:39;19.90;58.00
19060;DHT22;9663;48.996;8.334;2022-09-13T07:09:13;20.10;57.80
19060;DHT22;9663;48.996;8.334;2022-09-13T07:11:44;20.20;57.60
19060;DHT22;9663;48.996;8.334;2022-09-13T07:14:17;20.30;57.40
19060;DHT22;9663;48.996;8.334;2022-09-13T07:16:45;20.40;57.30
19060;DHT22;9663;48.996;8.334;2022-09-13T07:19:22;20.60;57.10
19060;DHT22;9663;48.996;8.334;2022-09-13T07:21:51;20.60;57.10
19060;DHT22;9663;48.996;8.334;2022-09-13T07:24:19;20.70;57.00
19060;DHT22;9663;48.996;8.334;2022-09-13T07:26:46;20.70;56.90
19060;DHT22;9663;48.996;8.334;2022-09-13T07:29:14;20.90;57.00
19060;DHT22;9663;48.996;8.334;2022-09-13T07:31:45;21.00;57.00
19060;DHT22;9663;48.996;8.334;2022-09-13T07:34:21;21.00;56.80
19060;DHT22;9663;48.996;8.334;2022-09-13T07:36:48;21.10;56.80
19060;DHT22;9663;48.996;8.334;2022-09-13T07:39:15;21.20;56.60
19060;DHT22;9663;48.996;8.334;2022-09-13T07:41:42;21.20;56.40
19060;DHT22;9663;48.996;8.334;2022-09-13T07:44:09;21.20;56.40
19060;DHT22;9663;48.996;8.334;2022-09-13T07:46:36;21.20;56.40
19060;DHT22;9663;48.996;8.334;2022-09-13T07:49:06;21.20;56.40
19060;DHT22;9663;48.996;8.334;2022-09-13T07:51:34;21.30;56.30
19060;DHT22;9663;48.996;8.334;2022-09-13T07:54:05;21.40;56.30
19060;DHT22;9663;48.996;8.334;2022-09-13T07:56:36;21.40;56.30
19060;DHT22;9663;48.996;8.334;2022-09-13T07:59:06;21.40;56.30
19060;DHT22;9663;48.996;8.334;2022-09-13T08:01:40;21.50;56.40
19060;DHT22;9663;48.996;8.334;2022-09-13T08:04:10;21.50;56.20
19060;DHT22;9663;48.996;8.334;2022-09-13T08:06:39;21.60;56.20
19060;DHT22;9663;48.996;8.334;2022-09-13T08:09:07;21.80;56.30
19060;DHT22;9663;48.996;8.334;2022-09-13T08:11:36;21.90;56.20
19060;DHT22;9663;48.996;8.334;2022-09-13T08:14:06;22.00;56.10
19060;DHT22;9663;48.996;8.334;2022-09-13T08:16:33;22.10;56.00
19060;DHT22;9663;48.996;8.334;2022-09-13T08:19:01;22.20;55.80
19060;DHT22;9663;48.996;8.334;2022-09-13T08:21:37;22.20;55.70
19060;DHT22;9663;48.996;8.334;2022-09-13T08:24:05;22.30;55.60
19060;DHT22;9663;48.996;8.334;2022-09-13T08:26:34;22.40;55.60
19060;DHT22;9663;48.996;8.334;2022-09-13T08:29:03;22.60;55.70
19060;DHT22;9663;48.996;8.334;2022-09-13T08:31:30;22.70;55.50
19060;DHT22;9663;48.996;8.334;2022-09-13T08:33:56;22.80;55.30
19060;DHT22;9663;48.996;8.334;2022-09-13T08:36:24;22.90;55.30
19060;DHT22;9663;48.996;8.334;2022-09-13T08:38:56;23.10;55.30
19060;DHT22;9663;48.996;8.334;2022-09-13T08:44:37;23.50;55.10
19060;DHT22;9663;48.996;8.334;2022-09-13T08:50:39;23.70;54.20
19060;DHT22;9663;48.996;8.334;2022-09-13T08:53:19;23.90;54.20
19060;DHT22;9663;48.996;8.334;2022-09-13T08:56:11;23.80;53.70
19060;DHT22;9663;48.996;8.334;2022-09-13T08:58:57;23.90;53.60
19060;DHT22;9663;48.996;8.334;2022-09-13T09:01:43;23.90;53.90
19060;DHT22;9663;48.996;8.334;2022-09-13T09:04:28;24.00;53.80
19060;DHT22;9663;48.996;8.334;2022-09-13T09:07:08;24.20;53.80
19060;DHT22;9663;48.996;8.334;2022-09-13T09:10:02;24.30;53.70
19060;DHT22;9663;48.996;8.334;2022-09-13T09:13:02;24.40;53.60
19060;DHT22;9663;48.996;8.334;2022-09-13T09:15:29;24.60;52.90
19060;DHT22;9663;48.996;8.334;2022-09-13T09:18:33;24.70;53.30
19060;DHT22;9663;48.996;8.334;2022-09-13T09:21:03;24.80;52.60
19060;DHT22;9663;48.996;8.334;2022-09-13T09:23:54;24.90;52.90
19060;DHT22;9663;48.996;8.334;2022-09-13T09:26:22;24.90;52.30
19060;DHT22;9663;48.996;8.334;2022-09-13T09:29:00;25.00;52.40
19060;DHT22;9663;48.996;8.334;2022-09-13T09:31:49;25.00;52.10
19060;DHT22;9663;48.996;8.334;2022-09-13T09:37:21;25.10;52.20
19060;DHT22;9663;48.996;8.334;2022-09-13T09:39:49;25.30;52.50
19060;DHT22;9663;48.996;8.334;2022-09-13T09:42:20;25.30;52.70
19060;DHT22;9663;48.996;8.334;2022-09-13T09:45:14;25.50;52.90
19060;DHT22;9663;48.996;8.334;2022-09-13T09:47:49;25.80;51.90
19060;DHT22;9663;48.996;8.334;2022-09-13T09:50:23;26.10;52.80
19060;DHT22;9663;48.996;8.334;2022-09-13T09:55:53;26.60;51.50
19060;DHT22;9663;48.996;8.334;2022-09-13T09:58:41;26.80;50.90
19060;DHT22;9663;48.996;8.334;2022-09-13T10:01:24;26.90;50.60
19060;DHT22;9663;48.996;8.334;2022-09-13T10:06:39;27.00;50.30
19060;DHT22;9663;48.996;8.334;2022-09-13T10:12:00;27.00;50.60
19060;DHT22;9663;48.996;8.334;2022-09-13T10:14:45;27.10;50.90
19060;DHT22;9663;48.996;8.334;2022-09-13T10:19:53;27.40;50.90
19060;DHT22;9663;48.996;8.334;2022-09-13T10:22:30;27.60;50.20
19060;DHT22;9663;48.996;8.334;2022-09-13T10:25:23;27.70;50.50
19060;DHT22;9663;48.996;8.334;2022-09-13T10:27:53;27.90;49.30
19060;DHT22;9663;48.996;8.334;2022-09-13T10:30:44;28.00;49.90
19060;DHT22;9663;48.996;8.334;2022-09-13T10:35:55;28.40;49.10
19060;DHT22;9663;48.996;8.334;2022-09-13T10:38:29;28.50;49.30
19060;DHT22;9663;48.996;8.334;2022-09-13T10:41:01;28.60;49.00
19060;DHT22;9663;48.996;8.334;2022-09-13T10:43:33;28.70;49.00
19060;DHT22;9663;48.996;8.334;2022-09-13T10:46:01;28.90;48.90
19060;DHT22;9663;48.996;8.334;2022-09-13T10:48:30;28.90;48.60
19060;DHT22;9663;48.996;8.334;2022-09-13T10:53:51;28.90;47.90
19060;DHT22;9663;48.996;8.334;2022-09-13T10:56:39;28.90;48.90
19060;DHT22;9663;48.996;8.334;2022-09-13T11:05:16;28.60;47.00
19060;DHT22;9663;48.996;8.334;2022-09-13T11:11:21;28.60;47.60
19060;DHT22;9663;48.996;8.334;2022-09-13T11:19:58;28.90;47.90
19060;DHT22;9663;48.996;8.334;2022-09-13T11:28:49;29.70;48.10
19060;DHT22;9663;48.996;8.334;2022-09-13T11:31:41;30.20;46.80
19060;DHT22;9663;48.996;8.334;2022-09-13T11:34:19;30.60;46.30
19060;DHT22;9663;48.996;8.334;2022-09-13T11:53:41;30.70;45.00
19060;DHT22;9663;48.996;8.334;2022-09-13T11:56:36;30.80;45.10
19060;DHT22;9663;48.996;8.334;2022-09-13T12:02:04;31.10;45.20
19060;DHT22;9663;48.996;8.334;2022-09-13T12:04:47;31.50;46.10
19060;DHT22;9663;48.996;8.334;2022-09-13T12:07:28;32.00;45.90
19060;DHT22;9663;48.996;8.334;2022-09-13T12:10:15;32.60;45.20
19060;DHT22;9663;48.996;8.334;2022-09-13T12:12:43;33.20;44.00
19060;DHT22;9663;48.996;8.334;2022-09-13T12:15:20;33.70;44.60
19060;DHT22;9663;48.996;8.334;2022-09-13T12:17:57;34.10;44.20
19060;DHT22;9663;48.996;8.334;2022-09-13T12:20:33;34.70;43.70
19060;DHT22;9663;48.996;8.334;2022-09-13T12:23:05;35.20;43.50
19060;DHT22;9663;48.996;8.334;2022-09-13T12:25:46;35.50;42.60
19060;DHT22;9663;48.996;8.334;2022-09-13T12:28:25;35.90;41.70
19060;DHT22;9663;48.996;8.334;2022-09-13T12:31:00;36.10;40.90
19060;DHT22;9663;48.996;8.334;2022-09-13T12:33:29;36.30;40.70
19060;DHT22;9663;48.996;8.334;2022-09-13T12:45:32;37.70;38.90
19060;DHT22;9663;48.996;8.334;2022-09-13T12:49:00;37.80;38.80
19060;DHT22;9663;48.996;8.334;2022-09-13T13:01:26;38.50;36.50
19060;DHT22;9663;48.996;8.334;2022-09-13T13:06:50;38.70;38.00
19060;DHT22;9663;48.996;8.334;2022-09-13T13:09:38;39.10;36.60
19060;DHT22;9663;48.996;8.334;2022-09-13T13:12:11;39.70;36.50
19060;DHT22;9663;48.996;8.334;2022-09-13T13:14:51;40.30;36.60
19060;DHT22;9663;48.996;8.334;2022-09-13T13:17:46;40.90;37.00
19060;DHT22;9663;48.996;8.334;2022-09-13T13:23:36;41.30;33.70
19060;DHT22;9663;48.996;8.334;2022-09-13T13:46:49;37.60;34.10
19060;DHT22;9663;48.996;8.334;2022-09-13T13:57:34;36.50;33.20
19060;DHT22;9663;48.996;8.334;2022-09-13T14:00:16;36.30;33.20
19060;DHT22;9663;48.996;8.334;2022-09-13T14:20:10;34.50;35.30
19060;DHT22;9663;48.996;8.334;2022-09-13T14:22:40;34.40;34.70
19060;DHT22;9663;48.996;8.334;2022-09-13T14:25:20;34.20;35.30
19060;DHT22;9663;48.996;8.334;2022-09-13T14:27:51;34.20;34.80
19060;DHT22;9663;48.996;8.334;2022-09-13T14:30:24;34.20;35.60
19060;DHT22;9663;48.996;8.334;2022-09-13T14:32:57;34.20;35.90
19060;DHT22;9663;48.996;8.334;2022-09-13T14:35:41;34.50;36.40
19060;DHT22;9663;48.996;8.334;2022-09-13T14:38:15;34.70;35.40
19060;DHT22;9663;48.996;8.334;2022-09-13T14:40:48;34.90;35.20
19060;DHT22;9663;48.996;8.334;2022-09-13T14:43:17;34.90;34.90
19060;DHT22;9663;48.996;8.334;2022-09-13T14:45:51;34.80;34.70
19060;DHT22;9663;48.996;8.334;2022-09-13T14:48:28;34.50;33.70
19060;DHT22;9663;48.996;8.334;2022-09-13T14:51:01;34.50;34.90
19060;DHT22;9663;48.996;8.334;2022-09-13T14:53:33;34.70;35.50
19060;DHT22;9663;48.996;8.334;2022-09-13T14:56:06;35.00;35.40
19060;DHT22;9663;48.996;8.334;2022-09-13T14:58:46;35.20;35.00
19060;DHT22;9663;48.996;8.334;2022-09-13T15:01:18;35.30;34.60
19060;DHT22;9663;48.996;8.334;2022-09-13T15:03:58;35.30;34.40
19060;DHT22;9663;48.996;8.334;2022-09-13T15:06:27;35.20;34.20
19060;DHT22;9663;48.996;8.334;2022-09-13T15:14:26;34.50;33.90
19060;DHT22;9663;48.996;8.334;2022-09-13T15:19:49;33.90;34.10
19060;DHT22;9663;48.996;8.334;2022-09-13T15:22:26;33.60;34.30
19060;DHT22;9663;48.996;8.334;2022-09-13T15:25:00;33.30;34.30
19060;DHT22;9663;48.996;8.334;2022-09-13T15:27:41;33.00;34.50
19060;DHT22;9663;48.996;8.334;2022-09-13T15:30:27;32.70;34.70
19060;DHT22;9663;48.996;8.334;2022-09-13T15:35:43;32.10;35.20
19060;DHT22;9663;48.996;8.334;2022-09-13T15:38:46;31.90;35.50
19060;DHT22;9663;48.996;8.334;2022-09-13T15:41:31;31.60;35.40
19060;DHT22;9663;48.996;8.334;2022-09-13T15:43:59;31.40;35.90
19060;DHT22;9663;48.996;8.334;2022-09-13T15:46:27;31.30;36.20
19060;DHT22;9663;48.996;8.334;2022-09-13T15:48:56;31.10;36.40
19060;DHT22;9663;48.996;8.334;2022-09-13T15:51:24;31.00;36.50
19060;DHT22;9663;48.996;8.334;2022-09-13T15:53:50;30.80;36.60
19060;DHT22;9663;48.996;8.334;2022-09-13T15:56:21;30.70;36.80
19060;DHT22;9663;48.996;8.334;2022-09-13T15:58:52;30.60;37.00
19060;DHT22;9663;48.996;8.334;2022-09-13T16:01:18;30.50;37.00
19060;DHT22;9663;48.996;8.334;2022-09-13T16:03:44;30.40;37.00
19060;DHT22;9663;48.996;8.334;2022-09-13T16:06:09;30.30;37.30
19060;DHT22;9663;48.996;8.334;2022-09-13T16:08:36;30.10;37.20
19060;DHT22;9663;48.996;8.334;2022-09-13T16:11:02;30.00;37.50
19060;DHT22;9663;48.996;8.334;2022-09-13T16:13:28;30.00;37.50
19060;DHT22;9663;48.996;8.334;2022-09-13T16:15:54;29.80;37.60
19060;DHT22;9663;48.996;8.334;2022-09-13T16:18:21;29.80;37.80
19060;DHT22;9663;48.996;8.334;2022-09-13T16:20:48;29.70;37.90
19060;DHT22;9663;48.996;8.334;2022-09-13T16:23:14;29.60;37.90
19060;DHT22;9663;48.996;8.334;2022-09-13T16:25:40;29.40;38.20
19060;DHT22;9663;48.996;8.334;2022-09-13T16:28:08;29.40;38.20
19060;DHT22;9663;48.996;8.334;2022-09-13T16:30:41;29.30;38.30
19060;DHT22;9663;48.996;8.334;2022-09-13T16:33:06;29.20;38.20
19060;DHT22;9663;48.996;8.334;2022-09-13T16:35:32;29.00;38.20
19060;DHT22;9663;48.996;8.334;2022-09-13T16:37:58;29.00;38.40
19060;DHT22;9663;48.996;8.334;2022-09-13T16:40:24;28.90;38.50
19060;DHT22;9663;48.996;8.334;2022-09-13T16:42:51;28.90;38.60
19060;DHT22;9663;48.996;8.334;2022-09-13T16:45:17;28.80;38.70
19060;DHT22;9663;48.996;8.334;2022-09-13T16:47:42;28.70;38.80
19060;DHT22;9663;48.996;8.334;2022-09-13T16:50:08;28.60;38.80
19060;DHT22;9663;48.996;8.334;2022-09-13T16:52:35;28.60;38.90
19060;DHT22;9663;48.996;8.334;2022-09-13T16:55:01;28.50;39.10
19060;DHT22;9663;48.996;8.334;2022-09-13T16:57:28;28.40;39.10
19060;DHT22;9663;48.996;8.334;2022-09-13T16:59:54;28.40;39.20
19060;DHT22;9663;48.996;8.334;2022-09-13T17:02:24;28.30;39.30
19060;DHT22;9663;48.996;8.334;2022-09-13T17:04:50;28.30;39.50
19060;DHT22;9663;48.996;8.334;2022-09-13T17:07:16;28.20;39.40
19060;DHT22;9663;48.996;8.334;2022-09-13T17:09:42;28.20;39.50
19060;DHT22;9663;48.996;8.334;2022-09-13T17:12:10;28.10;39.60
19060;DHT22;9663;48.996;8.334;2022-09-13T17:14:39;28.00;39.60
19060;DHT22;9663;48.996;8.334;2022-09-13T17:17:12;28.00;39.80
19060;DHT22;9663;48.996;8.334;2022-09-13T17:19:40;27.80;39.70
19060;DHT22;9663;48.996;8.334;2022-09-13T17:22:06;27.80;39.90
19060;DHT22;9663;48.996;8.334;2022-09-13T17:24:34;27.70;39.90
19060;DHT22;9663;48.996;8.334;2022-09-13T17:27:02;27.70;40.20
19060;DHT22;9663;48.996;8.334;2022-09-13T17:29:31;27.60;40.20
19060;DHT22;9663;48.996;8.334;2022-09-13T17:31:59;27.50;40.30
19060;DHT22;9663;48.996;8.334;2022-09-13T17:34:26;27.40;40.40
19060;DHT22;9663;48.996;8.334;2022-09-13T17:36:53;27.30;40.60
19060;DHT22;9663;48.996;8.334;2022-09-13T17:39:19;27.20;40.60
19060;DHT22;9663;48.996;8.334;2022-09-13T17:41:45;27.10;40.70
19060;DHT22;9663;48.996;8.334;2022-09-13T17:44:13;27.00;40.80
19060;DHT22;9663;48.996;8.334;2022-09-13T17:46:39;26.90;40.90
19060;DHT22;9663;48.996;8.334;2022-09-13T17:49:05;26.80;41.00
19060;DHT22;9663;48.996;8.334;2022-09-13T17:51:32;26.70;41.10
19060;DHT22;9663;48.996;8.334;2022-09-13T17:54:01;26.60;41.30
19060;DHT22;9663;48.996;8.334;2022-09-13T18:01:39;26.30;41.70
19060;DHT22;9663;48.996;8.334;2022-09-13T18:04:08;26.30;42.10
19060;DHT22;9663;48.996;8.334;2022-09-13T18:06:36;26.20;42.60
19060;DHT22;9663;48.996;8.334;2022-09-13T18:09:05;26.10;42.10
19060;DHT22;9663;48.996;8.334;2022-09-13T18:11:31;26.00;42.20
19060;DHT22;9663;48.996;8.334;2022-09-13T18:13:57;26.00;42.30
19060;DHT22;9663;48.996;8.334;2022-09-13T18:16:25;25.90;42.40
19060;DHT22;9663;48.996;8.334;2022-09-13T18:18:52;25.90;42.70
19060;DHT22;9663;48.996;8.334;2022-09-13T18:21:19;25.80;42.70
19060;DHT22;9663;48.996;8.334;2022-09-13T18:23:48;25.70;42.80
19060;DHT22;9663;48.996;8.334;2022-09-13T18:26:20;25.60;42.90
19060;DHT22;9663;48.996;8.334;2022-09-13T18:28:56;25.60;43.10
19060;DHT22;9663;48.996;8.334;2022-09-13T18:31:26;25.60;43.40
19060;DHT22;9663;48.996;8.334;2022-09-13T18:34:00;25.50;43.10
19060;DHT22;9663;48.996;8.334;2022-09-13T18:36:32;25.50;43.80
19060;DHT22;9663;48.996;8.334;2022-09-13T18:38:59;25.50;43.40
19060;DHT22;9663;48.996;8.334;2022-09-13T18:41:37;25.40;43.40
19060;DHT22;9663;48.996;8.334;2022-09-13T18:44:08;25.40;43.80
19060;DHT22;9663;48.996;8.334;2022-09-13T18:46:34;25.30;43.50
19060;DHT22;9663;48.996;8.334;2022-09-13T18:49:02;25.30;43.60
19060;DHT22;9663;48.996;8.334;2022-09-13T18:51:31;25.30;43.70
19060;DHT22;9663;48.996;8.334;2022-09-13T18:53:58;25.30;43.80
19060;DHT22;9663;48.996;8.334;2022-09-13T18:56:26;25.20;43.80
19060;DHT22;9663;48.996;8.334;2022-09-13T18:58:53;25.20;43.90
19060;DHT22;9663;48.996;8.334;2022-09-13T19:01:26;25.30;44.00
19060;DHT22;9663;48.996;8.334;2022-09-13T19:03:58;25.20;44.20
19060;DHT22;9663;48.996;8.334;2022-09-13T19:06:32;25.20;44.00
19060;DHT22;9663;48.996;8.334;2022-09-13T19:09:00;25.20;44.10
19060;DHT22;9663;48.996;8.334;2022-09-13T19:11:29;25.20;44.10
19060;DHT22;9663;48.996;8.334;2022-09-13T19:13:57;25.20;44.10
19060;DHT22;9663;48.996;8.334;2022-09-13T19:16:22;25.20;44.20
19060;DHT22;9663;48.996;8.334;2022-09-13T19:18:49;25.10;44.20
19060;DHT22;9663;48.996;8.334;2022-09-13T19:21:27;25.10;44.20
19060;DHT22;9663;48.996;8.334;2022-09-13T19:23:55;25.20;44.90
19060;DHT22;9663;48.996;8.334;2022-09-13T19:26:24;25.10;44.30
19060;DHT22;9663;48.996;8.334;2022-09-13T19:28:57;25.10;44.40
19060;DHT22;9663;48.996;8.334;2022-09-13T19:31:28;25.10;44.50
19060;DHT22;9663;48.996;8.334;2022-09-13T19:33:56;25.10;44.50